sensor_id;sensor_type;location;lat;lon;timestamp;P1;durP1;ratioP1;P2;durP2;ratioP2
26756;SDS011;23848;49.798;10.228;2022-10-13T00:02:22;24.77;;;15.85;;
26756;SDS011;23848;49.798;10.228;2022-10-13T00:04:50;24.05;;;15.35;;
26756;SDS011;23848;49.798;10.228;2022-10-13T00:07:23;26.90;;;16.48;;
26756;SDS011;23848;49.798;10.228;2022-10-13T00:09:52;22.90;;;15.75;;
26756;SDS011;23848;49.798;10.228;2022-10-13T00:12:22;24.98;;;16.67;;
26756;SDS011;23848;49.798;10.228;2022-10-13T00:14:51;23.17;;;15.00;;
26756;SDS011;23848;49.798;10.228;2022-10-13T00:17:19;25.63;;;15.75;;
26756;SDS011;23848;49.798;10.228;2022-10-13T00:19:49;26.30;;;15.82;;
26756;SDS011;23848;49.798;10.228;2022-10-13T00:22:18;25.58;;;16.02;;
26756;SDS011;23848;49.798;10.228;2022-10-13T00:24:49;24.25;;;15.45;;
26756;SDS011;23848;49.798;10.228;2022-10-13T00:27:18;24.52;;;15.57;;
26756;SDS011;23848;49.798;10.228;2022-10-13T00:29:48;26.88;;;17.08;;
26756;SDS011;23848;49.798;10.228;2022-10-13T00:32:17;32.88;;;18.52;;
26756;SDS011;23848;49.798;10.228;2022-10-13T00:34:46;29.95;;;17.75;;
26756;SDS011;23848;49.798;10.228;2022-10-13T00:37:17;26.45;;;16.45;;
26756;SDS011;23848;49.798;10.228;2022-10-13T00:39:46;27.17;;;15.82;;
26756;SDS011;23848;49.798;10.228;2022-10-13T00:42:15;29.20;;;17.70;;
26756;SDS011;23848;49.798;10.228;2022-10-13T00:47:38;26.35;;;16.65;;
26756;SDS011;23848;49.798;10.228;2022-10-13T00:50:10;28.10;;;17.55;;
26756;SDS011;23848;49.798;10.228;2022-10-13T00:52:40;24.25;;;15.90;;
26756;SDS011;23848;49.798;10.228;2022-10-13T00:55:11;26.05;;;16.58;;
26756;SDS011;23848;49.798;10.228;2022-10-13T00:57:43;28.08;;;15.95;;
26756;SDS011;23848;49.798;10.228;2022-10-13T01:00:20;23.23;;;14.82;;
26756;SDS011;23848;49.798;10.228;2022-10-13T01:02:51;22.42;;;14.23;;
26756;SDS011;23848;49.798;10.228;2022-10-13T01:05:22;23.55;;;16.02;;
26756;SDS011;23848;49.798;10.228;2022-10-13T01:07:50;26.52;;;16.27;;
26756;SDS011;23848;49.798;10.228;2022-10-13T01:10:28;24.88;;;15.55;;
26756;SDS011;23848;49.798;10.228;2022-10-13T01:12:59;24.77;;;15.57;;
26756;SDS011;23848;49.798;10.228;2022-10-13T01:15:31;22.42;;;14.95;;
26756;SDS011;23848;49.798;10.228;2022-10-13T01:18:04;24.05;;;15.98;;
26756;SDS011;23848;49.798;10.228;2022-10-13T01:20:36;26.23;;;16.27;;
26756;SDS011;23848;49.798;10.228;2022-10-13T01:23:17;25.17;;;15.75;;
26756;SDS011;23848;49.798;10.228;2022-10-13T01:26:02;24.48;;;15.30;;
26756;SDS011;23848;49.798;10.228;2022-10-13T01:28:39;25.52;;;16.45;;
26756;SDS011;23848;49.798;10.228;2022-10-13T01:31:12;27.60;;;16.48;;
26756;SDS011;23848;49.798;10.228;2022-10-13T01:33:42;23.60;;;15.48;;
26756;SDS011;23848;49.798;10.228;2022-10-13T01:36:16;26.65;;;16.30;;
26756;SDS011;23848;49.798;10.228;2022-10-13T01:41:18;25.80;;;14.60;;
26756;SDS011;23848;49.798;10.228;2022-10-13T01:43:54;22.85;;;15.63;;
26756;SDS011;23848;49.798;10.228;2022-10-13T01:46:27;22.40;;;14.80;;
26756;SDS011;23848;49.798;10.228;2022-10-13T01:48:57;21.30;;;14.25;;
26756;SDS011;23848;49.798;10.228;2022-10-13T01:51:28;24.10;;;14.25;;
26756;SDS011;23848;49.798;10.228;2022-10-13T01:53:58;22.08;;;14.23;;
26756;SDS011;23848;49.798;10.228;2022-10-13T01:56:27;21.55;;;14.52;;
26756;SDS011;23848;49.798;10.228;2022-10-13T01:59:00;22.95;;;15.48;;
26756;SDS011;23848;49.798;10.228;2022-10-13T02:04:28;22.38;;;15.23;;
26756;SDS011;23848;49.798;10.228;2022-10-13T02:07:00;23.60;;;15.00;;
26756;SDS011;23848;49.798;10.228;2022-10-13T02:09:32;23.15;;;14.32;;
26756;SDS011;23848;49.798;10.228;2022-10-13T02:12:04;24.65;;;14.55;;
26756;SDS011;23848;49.798;10.228;2022-10-13T02:14:34;25.48;;;14.48;;
26756;SDS011;23848;49.798;10.228;2022-10-13T02:17:05;21.80;;;13.60;;
26756;SDS011;23848;49.798;10.228;2022-10-13T02:19:36;25.58;;;14.68;;
26756;SDS011;23848;49.798;10.228;2022-10-13T02:22:07;22.00;;;14.25;;
26756;SDS011;23848;49.798;10.228;2022-10-13T02:24:38;24.02;;;14.10;;
26756;SDS011;23848;49.798;10.228;2022-10-13T02:27:07;19.55;;;13.27;;
26756;SDS011;23848;49.798;10.228;2022-10-13T02:29:47;19.35;;;13.02;;
26756;SDS011;23848;49.798;10.228;2022-10-13T02:32:16;20.65;;;13.77;;
26756;SDS011;23848;49.798;10.228;2022-10-13T02:34:46;22.17;;;13.30;;
26756;SDS011;23848;49.798;10.228;2022-10-13T02:37:15;20.52;;;13.88;;
26756;SDS011;23848;49.798;10.228;2022-10-13T02:39:44;21.05;;;13.38;;
26756;SDS011;23848;49.798;10.228;2022-10-13T02:42:14;21.83;;;13.15;;
26756;SDS011;23848;49.798;10.228;2022-10-13T02:44:45;21.35;;;14.30;;
26756;SDS011;23848;49.798;10.228;2022-10-13T02:47:14;21.67;;;13.38;;
26756;SDS011;23848;49.798;10.228;2022-10-13T02:49:43;22.52;;;13.90;;
26756;SDS011;23848;49.798;10.228;2022-10-13T02:52:13;22.20;;;13.63;;
26756;SDS011;23848;49.798;10.228;2022-10-13T02:54:43;23.58;;;14.02;;
26756;SDS011;23848;49.798;10.228;2022-10-13T02:57:12;21.73;;;14.15;;
26756;SDS011;23848;49.798;10.228;2022-10-13T02:59:42;22.33;;;13.55;;
26756;SDS011;23848;49.798;10.228;2022-10-13T03:02:12;23.80;;;14.20;;
26756;SDS011;23848;49.798;10.228;2022-10-13T03:04:40;22.73;;;14.20;;
26756;SDS011;23848;49.798;10.228;2022-10-13T03:07:09;21.65;;;13.13;;
26756;SDS011;23848;49.798;10.228;2022-10-13T03:09:39;19.20;;;12.68;;
26756;SDS011;23848;49.798;10.228;2022-10-13T03:12:08;20.52;;;13.60;;
26756;SDS011;23848;49.798;10.228;2022-10-13T03:14:37;23.83;;;14.82;;
26756;SDS011;23848;49.798;10.228;2022-10-13T03:17:05;23.92;;;16.63;;
26756;SDS011;23848;49.798;10.228;2022-10-13T03:19:42;25.47;;;17.43;;
26756;SDS011;23848;49.798;10.228;2022-10-13T03:22:11;23.90;;;16.58;;
26756;SDS011;23848;49.798;10.228;2022-10-13T03:24:42;23.63;;;16.35;;
26756;SDS011;23848;49.798;10.228;2022-10-13T03:27:11;29.65;;;17.98;;
26756;SDS011;23848;49.798;10.228;2022-10-13T03:29:39;29.88;;;17.48;;
26756;SDS011;23848;49.798;10.228;2022-10-13T03:32:08;29.85;;;17.13;;
26756;SDS011;23848;49.798;10.228;2022-10-13T03:34:37;26.77;;;15.82;;
26756;SDS011;23848;49.798;10.228;2022-10-13T03:37:05;22.70;;;15.23;;
26756;SDS011;23848;49.798;10.228;2022-10-13T03:39:34;24.42;;;14.88;;
26756;SDS011;23848;49.798;10.228;2022-10-13T03:42:04;20.92;;;14.07;;
26756;SDS011;23848;49.798;10.228;2022-10-13T03:44:33;21.70;;;13.63;;
26756;SDS011;23848;49.798;10.228;2022-10-13T03:47:02;21.10;;;14.60;;
26756;SDS011;23848;49.798;10.228;2022-10-13T03:49:31;22.77;;;14.68;;
26756;SDS011;23848;49.798;10.228;2022-10-13T03:52:00;23.48;;;14.68;;
26756;SDS011;23848;49.798;10.228;2022-10-13T03:54:29;22.15;;;13.90;;
26756;SDS011;23848;49.798;10.228;2022-10-13T03:56:57;21.58;;;13.90;;
26756;SDS011;23848;49.798;10.228;2022-10-13T03:59:27;21.08;;;14.07;;
26756;SDS011;23848;49.798;10.228;2022-10-13T04:02:02;23.65;;;14.70;;
26756;SDS011;23848;49.798;10.228;2022-10-13T04:04:31;22.92;;;14.02;;
26756;SDS011;23848;49.798;10.228;2022-10-13T04:06:59;24.45;;;14.45;;
26756;SDS011;23848;49.798;10.228;2022-10-13T04:09:28;23.05;;;14.20;;
26756;SDS011;23848;49.798;10.228;2022-10-13T04:11:57;22.58;;;14.93;;
26756;SDS011;23848;49.798;10.228;2022-10-13T04:14:27;21.60;;;14.02;;
26756;SDS011;23848;49.798;10.228;2022-10-13T04:16:56;22.58;;;14.10;;
26756;SDS011;23848;49.798;10.228;2022-10-13T04:19:35;23.52;;;14.00;;
26756;SDS011;23848;49.798;10.228;2022-10-13T04:22:04;23.40;;;14.68;;
26756;SDS011;23848;49.798;10.228;2022-10-13T04:24:33;22.83;;;14.35;;
26756;SDS011;23848;49.798;10.228;2022-10-13T04:27:02;25.10;;;14.40;;
26756;SDS011;23848;49.798;10.228;2022-10-13T04:29:33;25.10;;;14.82;;
26756;SDS011;23848;49.798;10.228;2022-10-13T04:32:02;25.05;;;14.95;;
26756;SDS011;23848;49.798;10.228;2022-10-13T04:34:30;22.23;;;13.65;;
26756;SDS011;23848;49.798;10.228;2022-10-13T04:36:59;23.58;;;14.20;;
26756;SDS011;23848;49.798;10.228;2022-10-13T04:39:28;22.60;;;14.18;;
26756;SDS011;23848;49.798;10.228;2022-10-13T04:41:56;24.33;;;14.10;;
26756;SDS011;23848;49.798;10.228;2022-10-13T04:44:25;23.33;;;13.77;;
26756;SDS011;23848;49.798;10.228;2022-10-13T04:46:56;21.27;;;13.80;;
26756;SDS011;23848;49.798;10.228;2022-10-13T04:49:26;22.30;;;13.35;;
26756;SDS011;23848;49.798;10.228;2022-10-13T04:51:57;22.30;;;14.20;;
26756;SDS011;23848;49.798;10.228;2022-10-13T04:54:29;23.35;;;15.10;;
26756;SDS011;23848;49.798;10.228;2022-10-13T04:56:58;23.73;;;14.15;;
26756;SDS011;23848;49.798;10.228;2022-10-13T04:59:27;23.30;;;14.20;;
26756;SDS011;23848;49.798;10.228;2022-10-13T05:01:57;25.98;;;15.32;;
26756;SDS011;23848;49.798;10.228;2022-10-13T05:04:26;19.55;;;13.50;;
26756;SDS011;23848;49.798;10.228;2022-10-13T05:06:56;23.27;;;14.88;;
26756;SDS011;23848;49.798;10.228;2022-10-13T05:09:43;24.05;;;14.77;;
26756;SDS011;23848;49.798;10.228;2022-10-13T05:12:12;23.98;;;14.63;;
26756;SDS011;23848;49.798;10.228;2022-10-13T05:14:41;24.13;;;14.77;;
26756;SDS011;23848;49.798;10.228;2022-10-13T05:17:11;25.55;;;15.35;;
26756;SDS011;23848;49.798;10.228;2022-10-13T05:19:39;20.35;;;14.05;;
26756;SDS011;23848;49.798;10.228;2022-10-13T05:22:08;24.55;;;14.70;;
26756;SDS011;23848;49.798;10.228;2022-10-13T05:24:37;23.95;;;15.82;;
26756;SDS011;23848;49.798;10.228;2022-10-13T05:27:08;25.73;;;15.60;;
26756;SDS011;23848;49.798;10.228;2022-10-13T05:29:37;25.88;;;16.05;;
26756;SDS011;23848;49.798;10.228;2022-10-13T05:32:06;25.83;;;16.17;;
26756;SDS011;23848;49.798;10.228;2022-10-13T05:34:37;24.25;;;15.75;;
26756;SDS011;23848;49.798;10.228;2022-10-13T05:37:06;25.40;;;15.80;;
26756;SDS011;23848;49.798;10.228;2022-10-13T05:39:35;25.45;;;14.98;;
26756;SDS011;23848;49.798;10.228;2022-10-13T05:42:03;24.52;;;15.18;;
26756;SDS011;23848;49.798;10.228;2022-10-13T05:44:33;25.38;;;15.82;;
26756;SDS011;23848;49.798;10.228;2022-10-13T05:47:02;22.23;;;14.52;;
26756;SDS011;23848;49.798;10.228;2022-10-13T05:49:33;27.30;;;15.43;;
26756;SDS011;23848;49.798;10.228;2022-10-13T05:52:07;25.90;;;15.63;;
26756;SDS011;23848;49.798;10.228;2022-10-13T05:54:37;25.00;;;15.95;;
26756;SDS011;23848;49.798;10.228;2022-10-13T05:57:07;25.50;;;15.60;;
26756;SDS011;23848;49.798;10.228;2022-10-13T05:59:40;27.15;;;16.13;;
26756;SDS011;23848;49.798;10.228;2022-10-13T06:02:12;28.08;;;17.15;;
26756;SDS011;23848;49.798;10.228;2022-10-13T06:04:43;23.48;;;15.82;;
26756;SDS011;23848;49.798;10.228;2022-10-13T06:07:14;26.40;;;16.08;;
26756;SDS011;23848;49.798;10.228;2022-10-13T06:09:42;28.50;;;16.48;;
26756;SDS011;23848;49.798;10.228;2022-10-13T06:12:11;27.83;;;16.77;;
26756;SDS011;23848;49.798;10.228;2022-10-13T06:14:40;25.60;;;15.82;;
26756;SDS011;23848;49.798;10.228;2022-10-13T06:17:09;24.48;;;16.38;;
26756;SDS011;23848;49.798;10.228;2022-10-13T06:19:38;25.88;;;16.58;;
26756;SDS011;23848;49.798;10.228;2022-10-13T06:22:07;28.42;;;16.75;;
26756;SDS011;23848;49.798;10.228;2022-10-13T06:24:38;25.20;;;16.45;;
26756;SDS011;23848;49.798;10.228;2022-10-13T06:27:06;26.38;;;16.27;;
26756;SDS011;23848;49.798;10.228;2022-10-13T06:29:35;29.60;;;17.40;;
26756;SDS011;23848;49.798;10.228;2022-10-13T06:32:04;27.55;;;15.95;;
26756;SDS011;23848;49.798;10.228;2022-10-13T06:34:33;31.00;;;19.38;;
26756;SDS011;23848;49.798;10.228;2022-10-13T06:37:02;30.65;;;18.95;;
26756;SDS011;23848;49.798;10.228;2022-10-13T06:39:31;31.65;;;18.40;;
26756;SDS011;23848;49.798;10.228;2022-10-13T06:42:01;33.00;;;18.55;;
26756;SDS011;23848;49.798;10.228;2022-10-13T06:44:30;27.90;;;16.63;;
26756;SDS011;23848;49.798;10.228;2022-10-13T06:46:59;27.45;;;16.33;;
26756;SDS011;23848;49.798;10.228;2022-10-13T06:49:28;30.38;;;17.48;;
26756;SDS011;23848;49.798;10.228;2022-10-13T06:51:57;28.38;;;17.17;;
26756;SDS011;23848;49.798;10.228;2022-10-13T06:54:26;30.13;;;17.25;;
26756;SDS011;23848;49.798;10.228;2022-10-13T06:56:55;23.65;;;15.20;;
26756;SDS011;23848;49.798;10.228;2022-10-13T06:59:25;30.08;;;17.23;;
26756;SDS011;23848;49.798;10.228;2022-10-13T07:01:53;31.73;;;18.38;;
26756;SDS011;23848;49.798;10.228;2022-10-13T07:04:22;29.58;;;17.05;;
26756;SDS011;23848;49.798;10.228;2022-10-13T07:06:51;33.65;;;17.73;;
26756;SDS011;23848;49.798;10.228;2022-10-13T07:09:20;29.45;;;16.23;;
26756;SDS011;23848;49.798;10.228;2022-10-13T07:11:48;34.35;;;17.90;;
26756;SDS011;23848;49.798;10.228;2022-10-13T07:14:17;31.80;;;18.42;;
26756;SDS011;23848;49.798;10.228;2022-10-13T07:16:47;34.83;;;21.33;;
26756;SDS011;23848;49.798;10.228;2022-10-13T07:19:16;33.75;;;19.50;;
26756;SDS011;23848;49.798;10.228;2022-10-13T07:21:45;32.63;;;17.50;;
26756;SDS011;23848;49.798;10.228;2022-10-13T07:24:14;36.65;;;18.02;;
26756;SDS011;23848;49.798;10.228;2022-10-13T07:26:42;33.92;;;17.52;;
26756;SDS011;23848;49.798;10.228;2022-10-13T07:29:11;32.50;;;18.30;;
26756;SDS011;23848;49.798;10.228;2022-10-13T07:31:41;33.22;;;17.45;;
26756;SDS011;23848;49.798;10.228;2022-10-13T07:34:11;32.05;;;18.60;;
26756;SDS011;23848;49.798;10.228;2022-10-13T07:36:43;36.53;;;18.88;;
26756;SDS011;23848;49.798;10.228;2022-10-13T07:39:13;33.75;;;17.67;;
26756;SDS011;23848;49.798;10.228;2022-10-13T07:41:41;34.15;;;17.63;;
26756;SDS011;23848;49.798;10.228;2022-10-13T07:44:17;34.47;;;17.02;;
26756;SDS011;23848;49.798;10.228;2022-10-13T07:46:49;39.75;;;18.27;;
26756;SDS011;23848;49.798;10.228;2022-10-13T07:49:23;37.58;;;16.60;;
26756;SDS011;23848;49.798;10.228;2022-10-13T07:51:51;37.85;;;17.17;;
26756;SDS011;23848;49.798;10.228;2022-10-13T07:54:20;36.10;;;17.25;;
26756;SDS011;23848;49.798;10.228;2022-10-13T07:56:52;32.40;;;16.63;;
26756;SDS011;23848;49.798;10.228;2022-10-13T07:59:22;36.85;;;17.70;;
26756;SDS011;23848;49.798;10.228;2022-10-13T08:01:51;33.85;;;17.38;;
26756;SDS011;23848;49.798;10.228;2022-10-13T08:04:20;29.13;;;14.23;;
26756;SDS011;23848;49.798;10.228;2022-10-13T08:06:55;30.25;;;14.23;;
26756;SDS011;23848;49.798;10.228;2022-10-13T08:09:23;33.45;;;16.77;;
26756;SDS011;23848;49.798;10.228;2022-10-13T08:11:52;31.80;;;15.98;;
26756;SDS011;23848;49.798;10.228;2022-10-13T08:14:26;32.22;;;15.35;;
26756;SDS011;23848;49.798;10.228;2022-10-13T08:16:55;30.15;;;16.02;;
26756;SDS011;23848;49.798;10.228;2022-10-13T08:19:26;31.90;;;15.65;;
26756;SDS011;23848;49.798;10.228;2022-10-13T08:21:59;32.17;;;16.85;;
26756;SDS011;23848;49.798;10.228;2022-10-13T08:24:35;27.38;;;15.25;;
26756;SDS011;23848;49.798;10.228;2022-10-13T08:27:03;31.63;;;16.60;;
26756;SDS011;23848;49.798;10.228;2022-10-13T08:29:34;30.15;;;15.45;;
26756;SDS011;23848;49.798;10.228;2022-10-13T08:32:06;32.30;;;16.10;;
26756;SDS011;23848;49.798;10.228;2022-10-13T08:34:36;30.38;;;16.00;;
26756;SDS011;23848;49.798;10.228;2022-10-13T08:37:10;31.60;;;16.65;;
26756;SDS011;23848;49.798;10.228;2022-10-13T08:39:42;32.33;;;17.42;;
26756;SDS011;23848;49.798;10.228;2022-10-13T08:42:12;31.50;;;17.13;;
26756;SDS011;23848;49.798;10.228;2022-10-13T08:44:44;32.23;;;17.00;;
26756;SDS011;23848;49.798;10.228;2022-10-13T08:47:52;33.33;;;17.65;;
26756;SDS011;23848;49.798;10.228;2022-10-13T08:50:26;33.90;;;16.90;;
26756;SDS011;23848;49.798;10.228;2022-10-13T08:53:02;30.42;;;16.77;;
26756;SDS011;23848;49.798;10.228;2022-10-13T08:55:42;30.08;;;16.30;;
26756;SDS011;23848;49.798;10.228;2022-10-13T08:58:21;31.65;;;17.10;;
26756;SDS011;23848;49.798;10.228;2022-10-13T09:00:51;30.83;;;16.27;;
26756;SDS011;23848;49.798;10.228;2022-10-13T09:03:28;31.00;;;15.77;;
26756;SDS011;23848;49.798;10.228;2022-10-13T09:06:08;28.90;;;15.55;;
26756;SDS011;23848;49.798;10.228;2022-10-13T09:08:47;29.75;;;16.13;;
26756;SDS011;23848;49.798;10.228;2022-10-13T09:11:24;29.88;;;15.50;;
26756;SDS011;23848;49.798;10.228;2022-10-13T09:14:18;29.95;;;16.33;;
26756;SDS011;23848;49.798;10.228;2022-10-13T09:17:20;33.03;;;17.05;;
26756;SDS011;23848;49.798;10.228;2022-10-13T09:19:57;35.45;;;17.80;;
26756;SDS011;23848;49.798;10.228;2022-10-13T09:22:40;37.00;;;18.65;;
26756;SDS011;23848;49.798;10.228;2022-10-13T09:25:30;33.75;;;17.55;;
26756;SDS011;23848;49.798;10.228;2022-10-13T09:28:27;38.88;;;18.33;;
26756;SDS011;23848;49.798;10.228;2022-10-13T09:31:23;40.15;;;19.58;;
26756;SDS011;23848;49.798;10.228;2022-10-13T09:34:12;41.42;;;19.27;;
26756;SDS011;23848;49.798;10.228;2022-10-13T09:36:59;42.47;;;19.55;;
26756;SDS011;23848;49.798;10.228;2022-10-13T09:39:43;37.67;;;19.50;;
26756;SDS011;23848;49.798;10.228;2022-10-13T09:42:54;41.25;;;20.13;;
26756;SDS011;23848;49.798;10.228;2022-10-13T09:45:40;40.95;;;19.83;;
26756;SDS011;23848;49.798;10.228;2022-10-13T09:48:26;40.78;;;18.98;;
26756;SDS011;23848;49.798;10.228;2022-10-13T09:51:00;39.70;;;18.67;;
26756;SDS011;23848;49.798;10.228;2022-10-13T09:53:30;36.72;;;18.20;;
26756;SDS011;23848;49.798;10.228;2022-10-13T09:56:13;31.63;;;17.88;;
26756;SDS011;23848;49.798;10.228;2022-10-13T09:58:53;33.72;;;16.63;;
26756;SDS011;23848;49.798;10.228;2022-10-13T10:01:24;28.85;;;15.27;;
26756;SDS011;23848;49.798;10.228;2022-10-13T10:03:59;30.65;;;16.60;;
26756;SDS011;23848;49.798;10.228;2022-10-13T10:06:31;31.88;;;15.32;;
26756;SDS011;23848;49.798;10.228;2022-10-13T10:09:02;27.98;;;16.08;;
26756;SDS011;23848;49.798;10.228;2022-10-13T10:11:42;30.63;;;16.17;;
26756;SDS011;23848;49.798;10.228;2022-10-13T10:14:14;26.05;;;15.00;;
26756;SDS011;23848;49.798;10.228;2022-10-13T10:16:48;29.20;;;14.93;;
26756;SDS011;23848;49.798;10.228;2022-10-13T10:19:29;25.30;;;14.90;;
26756;SDS011;23848;49.798;10.228;2022-10-13T10:22:07;25.00;;;12.98;;
26756;SDS011;23848;49.798;10.228;2022-10-13T10:24:57;23.75;;;14.35;;
26756;SDS011;23848;49.798;10.228;2022-10-13T10:27:56;23.23;;;13.93;;
26756;SDS011;23848;49.798;10.228;2022-10-13T10:30:47;23.02;;;13.52;;
26756;SDS011;23848;49.798;10.228;2022-10-13T10:33:27;24.75;;;13.93;;
26756;SDS011;23848;49.798;10.228;2022-10-13T10:36:01;36.08;;;19.15;;
26756;SDS011;23848;49.798;10.228;2022-10-13T10:39:07;34.00;;;18.30;;
26756;SDS011;23848;49.798;10.228;2022-10-13T10:41:54;29.75;;;18.05;;
26756;SDS011;23848;49.798;10.228;2022-10-13T10:44:36;28.42;;;15.27;;
26756;SDS011;23848;49.798;10.228;2022-10-13T10:47:34;25.77;;;15.30;;
26756;SDS011;23848;49.798;10.228;2022-10-13T10:50:39;28.92;;;15.65;;
26756;SDS011;23848;49.798;10.228;2022-10-13T10:53:43;25.92;;;14.88;;
26756;SDS011;23848;49.798;10.228;2022-10-13T10:59:52;30.20;;;15.18;;
26756;SDS011;23848;49.798;10.228;2022-10-13T11:02:40;26.30;;;14.32;;
26756;SDS011;23848;49.798;10.228;2022-10-13T11:05:13;26.00;;;13.85;;
26756;SDS011;23848;49.798;10.228;2022-10-13T11:08:23;26.33;;;13.68;;
26756;SDS011;23848;49.798;10.228;2022-10-13T11:14:22;25.75;;;13.10;;
26756;SDS011;23848;49.798;10.228;2022-10-13T11:17:14;25.02;;;14.05;;
26756;SDS011;23848;49.798;10.228;2022-10-13T11:22:36;22.90;;;13.07;;
26756;SDS011;23848;49.798;10.228;2022-10-13T11:27:59;25.92;;;12.60;;
26756;SDS011;23848;49.798;10.228;2022-10-13T11:30:48;22.58;;;12.20;;
26756;SDS011;23848;49.798;10.228;2022-10-13T11:42:18;20.80;;;11.27;;
26756;SDS011;23848;49.798;10.228;2022-10-13T11:51:21;20.20;;;11.93;;
26756;SDS011;23848;49.798;10.228;2022-10-13T11:54:18;17.85;;;10.32;;
26756;SDS011;23848;49.798;10.228;2022-10-13T11:57:15;18.35;;;10.38;;
26756;SDS011;23848;49.798;10.228;2022-10-13T11:59:56;17.50;;;9.85;;
26756;SDS011;23848;49.798;10.228;2022-10-13T12:02:59;19.25;;;10.30;;
26756;SDS011;23848;49.798;10.228;2022-10-13T12:06:04;16.02;;;9.65;;
26756;SDS011;23848;49.798;10.228;2022-10-13T12:08:35;18.95;;;10.38;;
26756;SDS011;23848;49.798;10.228;2022-10-13T12:14:23;18.42;;;9.80;;
26756;SDS011;23848;49.798;10.228;2022-10-13T12:17:28;16.38;;;10.75;;
26756;SDS011;23848;49.798;10.228;2022-10-13T12:23:33;19.55;;;10.02;;
26756;SDS011;23848;49.798;10.228;2022-10-13T12:26:12;18.75;;;9.40;;
26756;SDS011;23848;49.798;10.228;2022-10-13T12:28:51;18.67;;;10.82;;
26756;SDS011;23848;49.798;10.228;2022-10-13T12:31:37;15.93;;;9.70;;
26756;SDS011;23848;49.798;10.228;2022-10-13T12:34:28;17.55;;;9.32;;
26756;SDS011;23848;49.798;10.228;2022-10-13T12:37:10;18.08;;;9.27;;
26756;SDS011;23848;49.798;10.228;2022-10-13T12:39:47;15.02;;;9.23;;
26756;SDS011;23848;49.798;10.228;2022-10-13T12:42:33;16.08;;;9.90;;
26756;SDS011;23848;49.798;10.228;2022-10-13T12:45:26;17.25;;;10.00;;
26756;SDS011;23848;49.798;10.228;2022-10-13T12:48:01;15.00;;;9.85;;
26756;SDS011;23848;49.798;10.228;2022-10-13T12:50:52;14.85;;;9.35;;
26756;SDS011;23848;49.798;10.228;2022-10-13T12:53:32;16.92;;;10.32;;
26756;SDS011;23848;49.798;10.228;2022-10-13T12:59:28;15.85;;;8.60;;
26756;SDS011;23848;49.798;10.228;2022-10-13T13:02:02;15.18;;;9.82;;
26756;SDS011;23848;49.798;10.228;2022-10-13T13:04:40;15.00;;;9.13;;
26756;SDS011;23848;49.798;10.228;2022-10-13T13:07:27;12.98;;;8.38;;
26756;SDS011;23848;49.798;10.228;2022-10-13T13:10:17;15.82;;;9.52;;
26756;SDS011;23848;49.798;10.228;2022-10-13T13:13:11;16.17;;;9.02;;
26756;SDS011;23848;49.798;10.228;2022-10-13T13:15:40;14.82;;;8.57;;
26756;SDS011;23848;49.798;10.228;2022-10-13T13:18:28;14.77;;;8.57;;
26756;SDS011;23848;49.798;10.228;2022-10-13T13:21:28;15.80;;;8.20;;
26756;SDS011;23848;49.798;10.228;2022-10-13T13:23:58;14.95;;;8.95;;
26756;SDS011;23848;49.798;10.228;2022-10-13T13:26:55;13.27;;;8.75;;
26756;SDS011;23848;49.798;10.228;2022-10-13T13:29:26;13.95;;;8.70;;
26756;SDS011;23848;49.798;10.228;2022-10-13T13:31:57;22.27;;;9.23;;
26756;SDS011;23848;49.798;10.228;2022-10-13T13:34:28;21.02;;;10.20;;
26756;SDS011;23848;49.798;10.228;2022-10-13T13:36:59;18.73;;;10.30;;
26756;SDS011;23848;49.798;10.228;2022-10-13T13:39:30;16.55;;;9.50;;
26756;SDS011;23848;49.798;10.228;2022-10-13T13:42:02;18.65;;;9.98;;
26756;SDS011;23848;49.798;10.228;2022-10-13T13:44:32;17.15;;;10.23;;
26756;SDS011;23848;49.798;10.228;2022-10-13T13:47:01;19.45;;;10.10;;
26756;SDS011;23848;49.798;10.228;2022-10-13T13:49:30;17.65;;;10.35;;
26756;SDS011;23848;49.798;10.228;2022-10-13T13:51:58;16.52;;;10.10;;
26756;SDS011;23848;49.798;10.228;2022-10-13T13:54:27;18.90;;;10.20;;
26756;SDS011;23848;49.798;10.228;2022-10-13T13:56:57;14.43;;;10.00;;
26756;SDS011;23848;49.798;10.228;2022-10-13T13:59:25;14.73;;;9.38;;
26756;SDS011;23848;49.798;10.228;2022-10-13T14:01:54;16.83;;;10.32;;
26756;SDS011;23848;49.798;10.228;2022-10-13T14:04:30;18.55;;;11.68;;
26756;SDS011;23848;49.798;10.228;2022-10-13T14:06:58;21.95;;;11.75;;
26756;SDS011;23848;49.798;10.228;2022-10-13T14:09:27;20.05;;;13.10;;
26756;SDS011;23848;49.798;10.228;2022-10-13T14:11:57;18.05;;;11.52;;
26756;SDS011;23848;49.798;10.228;2022-10-13T14:14:28;18.92;;;11.88;;
26756;SDS011;23848;49.798;10.228;2022-10-13T14:16:57;17.40;;;11.95;;
26756;SDS011;23848;49.798;10.228;2022-10-13T14:19:27;22.65;;;13.43;;
26756;SDS011;23848;49.798;10.228;2022-10-13T14:21:55;18.10;;;11.35;;
26756;SDS011;23848;49.798;10.228;2022-10-13T14:24:24;18.80;;;11.40;;
26756;SDS011;23848;49.798;10.228;2022-10-13T14:26:52;17.95;;;11.55;;
26756;SDS011;23848;49.798;10.228;2022-10-13T14:29:33;17.05;;;10.98;;
26756;SDS011;23848;49.798;10.228;2022-10-13T14:32:12;25.98;;;12.98;;
26756;SDS011;23848;49.798;10.228;2022-10-13T14:34:43;22.08;;;14.48;;
26756;SDS011;23848;49.798;10.228;2022-10-13T14:37:15;22.05;;;13.55;;
26756;SDS011;23848;49.798;10.228;2022-10-13T14:39:49;19.70;;;12.52;;
26756;SDS011;23848;49.798;10.228;2022-10-13T14:42:19;22.05;;;14.88;;
26756;SDS011;23848;49.798;10.228;2022-10-13T14:44:54;19.42;;;12.57;;
26756;SDS011;23848;49.798;10.228;2022-10-13T14:47:23;23.42;;;13.27;;
26756;SDS011;23848;49.798;10.228;2022-10-13T14:49:58;20.02;;;12.52;;
26756;SDS011;23848;49.798;10.228;2022-10-13T14:52:33;22.48;;;14.77;;
26756;SDS011;23848;49.798;10.228;2022-10-13T14:55:09;20.30;;;12.75;;
26756;SDS011;23848;49.798;10.228;2022-10-13T14:57:38;20.02;;;11.48;;
26756;SDS011;23848;49.798;10.228;2022-10-13T15:00:09;20.58;;;11.75;;
26756;SDS011;23848;49.798;10.228;2022-10-13T15:02:38;18.98;;;12.25;;
26756;SDS011;23848;49.798;10.228;2022-10-13T15:05:07;19.67;;;12.57;;
26756;SDS011;23848;49.798;10.228;2022-10-13T15:07:38;18.70;;;12.15;;
26756;SDS011;23848;49.798;10.228;2022-10-13T15:10:09;20.20;;;12.27;;
26756;SDS011;23848;49.798;10.228;2022-10-13T15:12:40;22.45;;;12.85;;
26756;SDS011;23848;49.798;10.228;2022-10-13T15:15:11;16.00;;;11.68;;
26756;SDS011;23848;49.798;10.228;2022-10-13T15:17:39;19.33;;;12.80;;
26756;SDS011;23848;49.798;10.228;2022-10-13T15:20:08;17.65;;;12.07;;
26756;SDS011;23848;49.798;10.228;2022-10-13T15:22:37;17.33;;;11.23;;
26756;SDS011;23848;49.798;10.228;2022-10-13T15:25:08;16.08;;;10.52;;
26756;SDS011;23848;49.798;10.228;2022-10-13T15:27:39;18.08;;;12.55;;
26756;SDS011;23848;49.798;10.228;2022-10-13T15:30:08;17.38;;;12.05;;
26756;SDS011;23848;49.798;10.228;2022-10-13T15:32:44;18.13;;;11.70;;
26756;SDS011;23848;49.798;10.228;2022-10-13T15:35:15;19.58;;;11.18;;
26756;SDS011;23848;49.798;10.228;2022-10-13T15:37:44;17.98;;;10.85;;